createdAt,value
2019-03-26T00:00:36.361Z,12.30
2019-03-26T00:03:13.056Z,11.43
2019-03-26T00:05:47.367Z,11.50
2019-03-26T00:08:19.031Z,9.18
2019-03-26T00:10:52.022Z,7.28
2019-03-26T00:13:25.294Z,9.48
2019-03-26T00:15:56.976Z,8.33
2019-03-26T00:18:32.010Z,10.85
2019-03-26T00:21:03.654Z,12.15
2019-03-26T00:23:35.219Z,7.83
2019-03-26T00:26:09.940Z,8.95
2019-03-26T00:28:41.708Z,7.60
2019-03-26T00:31:13.376Z,6.47
2019-03-26T00:33:45.122Z,7.33
2019-03-26T00:36:16.985Z,9.70
2019-03-26T00:38:48.881Z,11.73
2019-03-26T00:41:20.721Z,8.33
2019-03-26T00:43:56.573Z,7.45
2019-03-26T00:46:28.130Z,7.40
2019-03-26T00:48:59.896Z,6.80
2019-03-26T00:51:31.528Z,6.90
2019-03-26T00:54:03.218Z,6.83
2019-03-26T00:56:35.054Z,9.28
2019-03-26T00:59:06.604Z,7.85
2019-03-26T01:01:38.184Z,7.62
2019-03-26T01:04:09.712Z,8.18
2019-03-26T01:06:41.494Z,6.92
2019-03-26T01:09:13.454Z,6.17
2019-03-26T01:11:45.306Z,6.58
2019-03-26T01:14:16.959Z,7.10
2019-03-26T01:16:48.644Z,6.90
2019-03-26T01:19:20.282Z,6.87
2019-03-26T01:21:51.940Z,7.42
2019-03-26T01:24:23.519Z,7.72
2019-03-26T01:26:55.485Z,8.03
2019-03-26T01:29:26.985Z,7.85
2019-03-26T01:31:58.803Z,8.25
2019-03-26T01:34:45.254Z,7.80
2019-03-26T01:37:06.717Z,7.70
2019-03-26T01:39:38.582Z,7.80
2019-03-26T01:42:10.334Z,7.97
2019-03-26T01:44:41.926Z,7.47
2019-03-26T01:47:13.884Z,8.40
2019-03-26T01:49:45.393Z,8.18
2019-03-26T01:52:17.066Z,8.65
2019-03-26T01:54:48.815Z,7.53
2019-03-26T01:57:20.589Z,8.43
2019-03-26T01:59:52.142Z,7.85
2019-03-26T02:02:23.981Z,6.92
2019-03-26T02:05:00.245Z,7.58
2019-03-26T02:07:29.977Z,7.62
2019-03-26T02:10:01.819Z,7.55
2019-03-26T02:12:33.375Z,7.20
2019-03-26T02:15:07.164Z,8.83
2019-03-26T02:17:38.863Z,7.53
2019-03-26T02:20:10.525Z,7.60
2019-03-26T02:22:42.056Z,7.47
2019-03-26T02:25:13.842Z,8.10
2019-03-26T02:27:45.681Z,7.15
2019-03-26T02:30:17.357Z,7.35
2019-03-26T02:32:49.223Z,7.55
2019-03-26T02:35:20.873Z,8.28
2019-03-26T02:37:52.638Z,8.05
2019-03-26T02:40:24.400Z,7.85
2019-03-26T02:42:57.297Z,7.97
2019-03-26T02:45:28.746Z,7.97
2019-03-26T02:48:00.396Z,7.70
2019-03-26T02:50:32.254Z,7.80
2019-03-26T02:53:03.996Z,8.13
2019-03-26T02:55:35.875Z,7.30
2019-03-26T02:58:08.578Z,8.08
2019-03-26T03:00:39.991Z,8.00
2019-03-26T03:03:11.855Z,7.72
2019-03-26T03:05:43.639Z,8.03
2019-03-26T03:08:15.299Z,7.30
2019-03-26T03:10:46.952Z,8.05
2019-03-26T03:13:19.941Z,7.80
2019-03-26T03:15:51.678Z,8.13
2019-03-26T03:18:23.456Z,8.33
2019-03-26T03:20:54.894Z,7.75
2019-03-26T03:23:26.667Z,8.15
2019-03-26T03:25:58.325Z,8.55
2019-03-26T03:28:29.890Z,8.53
2019-03-26T03:31:01.334Z,8.58
2019-03-26T03:33:33.097Z,8.50
2019-03-26T03:36:04.665Z,8.85
2019-03-26T03:38:36.393Z,8.83
2019-03-26T03:41:08.165Z,8.55
2019-03-26T03:43:39.827Z,8.85
2019-03-26T03:46:11.689Z,8.53
2019-03-26T03:48:43.347Z,8.53
2019-03-26T03:51:15.193Z,8.70
2019-03-26T03:53:46.843Z,8.85
2019-03-26T03:56:18.540Z,9.10
2019-03-26T03:58:50.384Z,9.55
2019-03-26T04:01:22.038Z,9.38
2019-03-26T04:03:53.600Z,9.03
2019-03-26T04:06:25.444Z,8.93
2019-03-26T04:08:57.201Z,9.60
2019-03-26T04:11:28.758Z,9.45
2019-03-26T04:14:00.753Z,8.05
2019-03-26T04:16:32.403Z,8.48
2019-03-26T04:19:04.064Z,9.08
2019-03-26T04:21:35.909Z,8.88
2019-03-26T04:24:07.558Z,8.33
2019-03-26T04:26:39.543Z,8.63
2019-03-26T04:29:11.309Z,9.98
2019-03-26T04:31:42.757Z,7.80
2019-03-26T04:34:14.607Z,7.97
2019-03-26T04:36:46.063Z,8.93
2019-03-26T04:39:17.630Z,8.93
2019-03-26T04:41:49.263Z,8.13
2019-03-26T04:44:20.906Z,8.38
2019-03-26T04:46:52.697Z,8.50
2019-03-26T04:49:24.451Z,8.18
2019-03-26T04:51:56.300Z,8.65
2019-03-26T04:54:28.082Z,8.13
2019-03-26T04:56:59.674Z,8.45
2019-03-26T04:59:31.503Z,10.53
2019-03-26T05:02:03.290Z,9.95
2019-03-26T05:04:35.224Z,8.83
2019-03-26T05:07:06.861Z,8.53
2019-03-26T05:09:38.429Z,8.98
2019-03-26T05:12:10.129Z,8.80
2019-03-26T05:14:42.032Z,9.30
2019-03-26T05:17:13.794Z,9.40
2019-03-26T05:19:45.573Z,8.75
2019-03-26T05:22:24.202Z,9.90
2019-03-26T05:24:50.633Z,9.08
2019-03-26T05:27:23.523Z,8.63
2019-03-26T05:29:55.495Z,9.18
2019-03-26T05:32:26.930Z,9.00
2019-03-26T05:34:58.693Z,9.50
2019-03-26T05:37:30.378Z,9.40
2019-03-26T05:40:02.004Z,8.50
2019-03-26T05:42:33.747Z,8.63
2019-03-26T05:45:07.763Z,8.95
2019-03-26T05:47:39.223Z,8.35
2019-03-26T05:50:10.899Z,8.40
2019-03-26T05:52:42.659Z,8.65
2019-03-26T05:55:14.099Z,8.90
2019-03-26T05:57:45.656Z,9.13
2019-03-26T06:00:20.092Z,9.75
2019-03-26T06:05:22.879Z,9.03
2019-03-26T06:07:54.545Z,9.63
2019-03-26T06:10:26.197Z,9.30
2019-03-26T06:12:57.791Z,8.73
2019-03-26T06:15:29.308Z,9.20
2019-03-26T06:18:01.264Z,8.95
2019-03-26T06:20:32.911Z,8.60
2019-03-26T06:23:04.792Z,8.33
2019-03-26T06:25:36.560Z,8.93
2019-03-26T06:28:08.313Z,9.43
2019-03-26T06:30:39.973Z,9.40
2019-03-26T06:33:11.840Z,9.10
2019-03-26T06:35:43.580Z,9.25
2019-03-26T06:38:15.545Z,9.85
2019-03-26T06:40:47.204Z,10.15
2019-03-26T06:43:18.770Z,10.20
2019-03-26T06:45:50.619Z,10.15
2019-03-26T06:48:22.397Z,10.50
2019-03-26T06:50:54.470Z,11.38
2019-03-26T06:53:26.384Z,11.75
2019-03-26T06:55:57.984Z,12.68
2019-03-26T06:58:29.539Z,12.80
2019-03-26T07:01:01.504Z,13.80
2019-03-26T07:03:33.363Z,12.47
2019-03-26T07:06:04.799Z,13.58
2019-03-26T07:08:36.452Z,16.02
2019-03-26T07:11:08.325Z,17.05
2019-03-26T07:13:40.030Z,16.75
2019-03-26T07:16:11.550Z,15.55
2019-03-26T07:18:43.183Z,15.35
2019-03-26T07:21:15.067Z,15.70
2019-03-26T07:23:46.687Z,15.90
2019-03-26T07:26:18.575Z,17.70
2019-03-26T07:28:50.131Z,16.67
2019-03-26T07:31:21.807Z,16.45
2019-03-26T07:33:53.654Z,17.40
2019-03-26T07:36:25.529Z,16.75
2019-03-26T07:38:57.369Z,16.93
2019-03-26T07:41:29.141Z,17.12
2019-03-26T07:44:00.915Z,17.17
2019-03-26T07:46:32.671Z,16.90
2019-03-26T07:49:04.516Z,17.45
2019-03-26T07:51:36.518Z,17.70
2019-03-26T07:54:08.239Z,17.40
2019-03-26T07:56:41.368Z,17.45
2019-03-26T07:59:13.004Z,18.10
2019-03-26T08:01:44.770Z,17.62
2019-03-26T08:04:16.411Z,17.25
2019-03-26T08:06:48.499Z,17.10
2019-03-26T08:09:20.252Z,17.50
2019-03-26T08:11:51.795Z,16.55
2019-03-26T08:14:23.532Z,17.02
2019-03-26T08:16:55.038Z,17.40
2019-03-26T08:19:26.666Z,17.67
2019-03-26T08:21:58.522Z,17.48
2019-03-26T08:24:30.192Z,17.85
2019-03-26T08:27:01.957Z,19.12
2019-03-26T08:29:35.540Z,20.05
2019-03-26T08:32:07.217Z,18.35
2019-03-26T08:34:38.877Z,19.35
2019-03-26T08:37:10.708Z,19.90
2019-03-26T08:39:42.394Z,20.60
2019-03-26T08:42:14.041Z,21.45
2019-03-26T08:44:45.917Z,21.90
2019-03-26T08:47:17.879Z,23.30
2019-03-26T08:49:49.436Z,22.17
2019-03-26T08:52:21.292Z,22.40
2019-03-26T08:54:52.854Z,21.82
2019-03-26T08:57:24.492Z,22.00
2019-03-26T08:59:57.396Z,20.12
2019-03-26T09:02:29.052Z,20.32
2019-03-26T09:05:00.497Z,21.02
2019-03-26T09:07:32.367Z,20.70
2019-03-26T09:10:04.331Z,20.05
2019-03-26T09:12:35.798Z,19.45
2019-03-26T09:15:09.849Z,20.35
2019-03-26T09:17:44.213Z,21.68
2019-03-26T09:20:15.829Z,20.27
2019-03-26T09:22:47.641Z,21.62
2019-03-26T09:25:19.403Z,20.88
2019-03-26T09:27:52.487Z,22.07
2019-03-26T09:30:24.152Z,22.40
2019-03-26T09:32:56.020Z,21.97
2019-03-26T09:35:27.665Z,21.35
2019-03-26T09:37:59.331Z,23.98
2019-03-26T09:40:31.176Z,24.25
2019-03-26T09:43:02.838Z,25.75
2019-03-26T09:45:34.807Z,24.55
2019-03-26T09:48:06.460Z,24.18
2019-03-26T09:50:38.338Z,23.50
2019-03-26T09:53:10.095Z,24.65
2019-03-26T09:55:41.557Z,22.87
2019-03-26T09:58:13.293Z,25.40
2019-03-26T10:00:45.167Z,36.55
2019-03-26T10:03:16.833Z,36.42
2019-03-26T10:05:48.471Z,36.08
2019-03-26T10:08:20.127Z,33.95
2019-03-26T10:10:52.008Z,33.98
2019-03-26T10:13:23.547Z,40.50
2019-03-26T10:15:55.506Z,46.73
2019-03-26T10:18:27.186Z,40.58
2019-03-26T10:21:00.170Z,39.55
2019-03-26T10:23:31.916Z,46.60
2019-03-26T10:26:04.411Z,45.23
2019-03-26T10:28:35.946Z,49.25
2019-03-26T10:31:07.520Z,47.55
2019-03-26T10:33:39.381Z,41.37
2019-03-26T10:36:10.940Z,39.27
2019-03-26T10:38:42.586Z,36.48
2019-03-26T10:41:14.344Z,38.23
2019-03-26T10:43:46.017Z,27.50
2019-03-26T10:46:17.776Z,26.65
2019-03-26T10:48:49.421Z,26.05
2019-03-26T10:51:20.985Z,26.15
2019-03-26T10:53:52.859Z,25.23
2019-03-26T10:56:24.492Z,26.52
2019-03-26T10:58:56.163Z,26.37
2019-03-26T11:01:27.602Z,26.37
2019-03-26T11:03:59.483Z,27.62
2019-03-26T11:06:31.341Z,26.65
2019-03-26T11:09:04.433Z,26.75
2019-03-26T11:11:36.087Z,26.35
2019-03-26T11:14:07.536Z,26.12
2019-03-26T11:16:39.325Z,25.97
2019-03-26T11:19:10.952Z,24.00
2019-03-26T11:21:42.510Z,24.77
2019-03-26T11:24:15.495Z,24.20
2019-03-26T11:26:47.269Z,24.12
2019-03-26T11:29:18.930Z,23.80
2019-03-26T11:31:50.591Z,21.85
2019-03-26T11:34:22.232Z,21.82
2019-03-26T11:36:54.007Z,22.75
2019-03-26T11:39:32.762Z,21.30
2019-03-26T11:41:58.636Z,23.00
2019-03-26T11:44:30.088Z,19.98
2019-03-26T11:47:02.055Z,19.00
2019-03-26T11:49:33.626Z,20.62
2019-03-26T11:52:05.491Z,20.48
2019-03-26T11:54:37.214Z,20.32
2019-03-26T11:57:08.781Z,19.25
2019-03-26T11:59:40.572Z,17.90
2019-03-26T12:02:12.447Z,19.02
2019-03-26T12:04:44.269Z,18.90
2019-03-26T12:07:15.840Z,20.25
2019-03-26T12:09:47.476Z,18.77
2019-03-26T12:12:19.895Z,20.88
2019-03-26T12:14:57.730Z,19.67
2019-03-26T12:17:31.382Z,19.85
2019-03-26T12:20:03.426Z,20.40
2019-03-26T12:22:34.969Z,21.40
2019-03-26T12:25:07.352Z,21.73
2019-03-26T12:27:39.020Z,21.82
2019-03-26T12:30:10.664Z,21.80
2019-03-26T12:32:42.655Z,21.65
2019-03-26T12:35:17.274Z,20.80
2019-03-26T12:37:48.942Z,22.95
2019-03-26T12:40:20.688Z,20.75
2019-03-26T12:42:52.556Z,24.70
2019-03-26T12:45:24.220Z,22.65
2019-03-26T12:47:55.873Z,21.40
2019-03-26T12:50:27.415Z,19.12
2019-03-26T12:52:58.780Z,20.40
2019-03-26T12:55:30.644Z,19.40
2019-03-26T12:58:01.981Z,19.75
2019-03-26T13:00:33.855Z,17.95
2019-03-26T13:03:05.513Z,18.45
2019-03-26T13:05:36.947Z,25.00
2019-03-26T13:08:08.810Z,26.48
2019-03-26T13:10:52.905Z,25.15
2019-03-26T13:13:13.785Z,24.43
2019-03-26T13:15:45.444Z,23.20
2019-03-26T13:18:17.001Z,19.77
2019-03-26T13:20:49.050Z,20.32
2019-03-26T13:23:20.617Z,19.70
2019-03-26T13:25:52.457Z,16.85
2019-03-26T13:28:24.035Z,17.67
2019-03-26T13:30:55.466Z,16.87
2019-03-26T13:33:27.131Z,18.87
2019-03-26T13:35:58.803Z,18.50
2019-03-26T13:38:30.647Z,18.32
2019-03-26T13:41:02.308Z,17.75
2019-03-26T13:43:34.186Z,18.82
2019-03-26T13:46:05.845Z,16.67
2019-03-26T13:48:37.484Z,15.72
2019-03-26T13:51:09.263Z,16.57
2019-03-26T13:53:40.918Z,15.83
2019-03-26T13:56:12.461Z,16.50
2019-03-26T13:58:44.126Z,15.88
2019-03-26T14:01:15.768Z,16.05
2019-03-26T14:03:47.632Z,16.07
2019-03-26T14:06:19.308Z,17.10
2019-03-26T14:08:51.069Z,17.73
2019-03-26T14:11:22.725Z,17.55
2019-03-26T14:13:54.463Z,18.15
2019-03-26T14:16:26.140Z,20.92
2019-03-26T14:18:58.106Z,20.72
2019-03-26T14:21:29.660Z,21.00
2019-03-26T14:24:01.315Z,19.23
2019-03-26T14:26:33.075Z,20.37
2019-03-26T14:29:04.631Z,18.50
2019-03-26T14:31:36.496Z,17.70
2019-03-26T14:34:08.078Z,18.62
2019-03-26T14:36:40.009Z,18.02
2019-03-26T14:39:11.598Z,18.67
2019-03-26T14:41:43.224Z,17.07
2019-03-26T14:44:14.866Z,18.57
2019-03-26T14:46:46.520Z,18.73
2019-03-26T14:49:18.400Z,17.30
2019-03-26T14:51:50.059Z,256.35
2019-03-26T14:54:21.907Z,213.07
2019-03-26T14:56:53.477Z,32.93
2019-03-26T14:59:25.034Z,22.80
2019-03-26T15:01:57.807Z,23.05
2019-03-26T15:04:29.274Z,33.42
2019-03-26T15:07:01.120Z,26.62
2019-03-26T15:09:32.802Z,23.75
2019-03-26T15:12:04.654Z,20.35
2019-03-26T15:14:36.314Z,20.27
2019-03-26T15:17:08.283Z,22.27
2019-03-26T15:19:40.052Z,20.88
2019-03-26T15:22:11.803Z,23.45
2019-03-26T15:24:44.634Z,23.30
2019-03-26T15:29:49.643Z,19.25
2019-03-26T15:32:21.074Z,20.25
2019-03-26T15:34:52.649Z,21.10
2019-03-26T15:37:24.596Z,22.13
2019-03-26T15:39:56.168Z,21.27
2019-03-26T15:42:27.924Z,22.02
2019-03-26T15:44:59.611Z,19.77
2019-03-26T15:47:31.145Z,18.25
2019-03-26T15:50:02.804Z,16.75
2019-03-26T15:52:34.456Z,16.27
2019-03-26T15:55:06.826Z,19.12
2019-03-26T15:57:39.003Z,19.62
2019-03-26T16:00:11.525Z,19.73
2019-03-26T16:02:46.289Z,17.98
2019-03-26T16:05:18.190Z,37.17
2019-03-26T16:07:49.842Z,42.20
2019-03-26T16:10:22.319Z,43.68
2019-03-26T16:12:54.043Z,38.10
2019-03-26T16:15:25.707Z,26.82
2019-03-26T16:17:57.390Z,24.77
2019-03-26T16:20:30.672Z,24.23
2019-03-26T16:23:02.318Z,24.00
2019-03-26T16:25:34.282Z,23.07
2019-03-26T16:28:07.184Z,24.50
2019-03-26T16:30:38.942Z,22.95
2019-03-26T16:33:10.598Z,23.45
2019-03-26T16:35:42.444Z,21.87
2019-03-26T16:38:14.006Z,22.62
2019-03-26T16:40:45.676Z,24.32
2019-03-26T16:43:17.475Z,24.77
2019-03-26T16:45:49.080Z,25.70
2019-03-26T16:48:20.834Z,26.17
2019-03-26T16:50:52.648Z,27.13
2019-03-26T16:53:30.525Z,29.90
2019-03-26T16:56:02.181Z,29.98
2019-03-26T17:01:14.813Z,31.57
2019-03-26T17:03:46.656Z,28.67
2019-03-26T17:06:18.533Z,27.73
2019-03-26T17:08:50.102Z,30.00
2019-03-26T17:11:21.949Z,28.87
2019-03-26T17:13:53.505Z,30.60
2019-03-26T17:16:25.365Z,31.68
2019-03-26T17:18:57.124Z,31.45
2019-03-26T17:21:28.970Z,30.60
2019-03-26T17:24:01.485Z,28.35
2019-03-26T17:26:33.111Z,26.55
2019-03-26T17:29:05.091Z,26.95
2019-03-26T17:31:43.963Z,29.57
2019-03-26T17:34:15.884Z,31.73
2019-03-26T17:36:47.564Z,31.20
2019-03-26T17:39:19.392Z,37.10
2019-03-26T17:41:51.132Z,31.57
2019-03-26T17:44:22.719Z,31.57
2019-03-26T17:46:54.874Z,32.13
2019-03-26T17:49:26.512Z,35.17
2019-03-26T17:51:58.644Z,35.60
2019-03-26T17:54:30.355Z,32.10
2019-03-26T17:57:14.878Z,37.60
2019-03-26T17:59:48.114Z,35.28
2019-03-26T18:02:19.666Z,33.02
2019-03-26T18:04:51.982Z,30.75
2019-03-26T18:07:23.604Z,34.13
2019-03-26T18:09:55.355Z,37.88
2019-03-26T18:12:31.129Z,46.33
2019-03-26T18:15:00.357Z,44.80
2019-03-26T18:17:31.746Z,45.85
2019-03-26T18:20:03.921Z,47.62
2019-03-26T18:22:36.393Z,44.55
2019-03-26T18:25:08.945Z,39.70
2019-03-26T18:27:41.258Z,39.70
2019-03-26T18:30:12.803Z,34.45
2019-03-26T18:32:44.685Z,35.73
2019-03-26T18:35:16.442Z,33.02
2019-03-26T18:37:48.195Z,32.63
2019-03-26T18:40:20.004Z,32.25
2019-03-26T18:42:51.412Z,34.40
2019-03-26T18:45:22.938Z,35.63
2019-03-26T18:47:54.696Z,35.95
2019-03-26T18:50:26.365Z,38.65
2019-03-26T18:52:57.931Z,33.20
2019-03-26T18:55:29.705Z,35.10
2019-03-26T18:58:01.452Z,35.03
2019-03-26T19:00:38.143Z,31.33
2019-03-26T19:03:09.790Z,31.12
2019-03-26T19:05:41.447Z,29.63
2019-03-26T19:08:14.756Z,32.23
2019-03-26T19:10:46.602Z,30.20
2019-03-26T19:13:20.094Z,28.75
2019-03-26T19:15:51.236Z,30.90
2019-03-26T19:18:23.109Z,31.33
2019-03-26T19:21:02.036Z,31.12
2019-03-26T19:23:27.752Z,29.57
2019-03-26T19:25:59.942Z,28.67
2019-03-26T19:28:31.693Z,28.32
2019-03-26T19:31:05.680Z,27.70
2019-03-26T19:33:37.557Z,27.20
2019-03-26T19:36:09.406Z,26.30
2019-03-26T19:38:40.974Z,26.93
2019-03-26T19:41:13.144Z,27.62
2019-03-26T19:43:44.880Z,25.45
2019-03-26T19:46:16.454Z,24.67
2019-03-26T19:48:48.113Z,26.57
2019-03-26T19:51:19.957Z,27.60
2019-03-26T19:53:51.720Z,27.87
2019-03-26T19:56:23.576Z,27.35
2019-03-26T19:58:55.458Z,26.02
2019-03-26T20:01:27.032Z,25.77
2019-03-26T20:04:19.667Z,26.70
2019-03-26T20:06:52.134Z,25.85
2019-03-26T20:09:24.078Z,26.35
2019-03-26T20:11:55.569Z,26.95
2019-03-26T20:14:27.816Z,26.95
2019-03-26T20:16:59.585Z,27.80
2019-03-26T20:19:31.236Z,26.65
2019-03-26T20:22:02.976Z,26.25
2019-03-26T20:24:46.548Z,28.77
2019-03-26T20:27:18.086Z,28.23
2019-03-26T20:29:49.541Z,31.27
2019-03-26T20:32:21.460Z,32.25
2019-03-26T20:34:53.456Z,31.50
2019-03-26T20:37:27.068Z,29.45
2019-03-26T20:39:58.623Z,29.25
2019-03-26T20:42:30.403Z,30.92
2019-03-26T20:45:02.071Z,32.58
2019-03-26T20:47:33.691Z,32.60
2019-03-26T20:50:08.342Z,32.70
2019-03-26T20:52:39.868Z,32.35
2019-03-26T20:55:12.034Z,31.30
2019-03-26T20:57:45.437Z,28.98
2019-03-26T21:00:20.075Z,26.93
2019-03-26T21:02:51.618Z,26.57
2019-03-26T21:05:23.496Z,26.48
2019-03-26T21:07:56.176Z,27.02
2019-03-26T21:10:27.968Z,27.62
2019-03-26T21:12:59.387Z,28.32
2019-03-26T21:15:31.140Z,28.42
2019-03-26T21:18:03.000Z,29.10
2019-03-26T21:20:34.761Z,29.18
2019-03-26T21:23:06.722Z,36.55
2019-03-26T21:25:38.471Z,35.40
2019-03-26T21:28:09.933Z,36.70
2019-03-26T21:30:41.508Z,34.98
2019-03-26T21:33:13.023Z,31.80
2019-03-26T21:35:44.786Z,31.12
2019-03-26T21:38:16.541Z,32.85
2019-03-26T21:40:48.511Z,30.08
2019-03-26T21:43:21.947Z,30.92
2019-03-26T21:45:53.576Z,31.50
2019-03-26T21:48:25.774Z,32.63
2019-03-26T21:50:57.736Z,32.45
2019-03-26T21:53:29.262Z,36.28
2019-03-26T21:56:06.829Z,42.95
2019-03-26T21:58:34.518Z,44.60
2019-03-26T22:01:05.974Z,47.20
2019-03-26T22:03:37.802Z,50.83
2019-03-26T22:06:09.204Z,53.58
2019-03-26T22:08:41.573Z,52.20
2019-03-26T22:11:13.151Z,53.70
2019-03-26T22:13:44.472Z,53.15
2019-03-26T22:16:15.954Z,56.48
2019-03-26T22:18:47.786Z,56.42
2019-03-26T22:21:19.667Z,57.08
2019-03-26T22:23:51.180Z,57.00
2019-03-26T22:26:22.729Z,58.90
2019-03-26T22:28:54.299Z,57.98
2019-03-26T22:31:25.859Z,56.10
2019-03-26T22:33:57.612Z,58.23
2019-03-26T22:36:29.258Z,54.45
2019-03-26T22:39:01.035Z,52.20
2019-03-26T22:41:34.237Z,52.30
2019-03-26T22:44:05.677Z,49.25
2019-03-26T22:46:37.528Z,49.48
2019-03-26T22:49:09.208Z,50.20
2019-03-26T22:51:40.759Z,51.98
2019-03-26T22:54:12.615Z,51.35
2019-03-26T22:56:44.383Z,49.70
2019-03-26T22:59:16.017Z,50.98
2019-03-26T23:01:47.878Z,49.95
2019-03-26T23:04:20.095Z,50.10
2019-03-26T23:06:51.612Z,48.08
2019-03-26T23:09:23.601Z,51.25
2019-03-26T23:11:55.037Z,48.55
2019-03-26T23:14:27.924Z,48.92
2019-03-26T23:16:59.485Z,48.33
2019-03-26T23:19:31.240Z,49.67
2019-03-26T23:22:02.790Z,51.33
2019-03-26T23:24:34.546Z,51.80
2019-03-26T23:27:06.206Z,52.45
2019-03-26T23:29:39.254Z,53.63
2019-03-26T23:32:11.537Z,57.43
2019-03-26T23:34:43.305Z,56.83
2019-03-26T23:37:15.295Z,54.53
2019-03-26T23:39:47.132Z,57.23
2019-03-26T23:42:18.711Z,61.47
2019-03-26T23:44:58.195Z,58.90
2019-03-26T23:47:23.693Z,60.93
2019-03-26T23:49:55.313Z,58.30
2019-03-26T23:52:27.073Z,61.10
2019-03-26T23:54:58.612Z,55.50
2019-03-26T23:57:30.981Z,58.23
